createdAt,value
2023-04-26T00:00:30.403Z,5.94
2023-04-26T00:01:34.556Z,5.94
2023-04-26T00:02:39.053Z,5.94
2023-04-26T00:03:43.310Z,5.96
2023-04-26T00:04:47.604Z,5.98
2023-04-26T00:05:51.676Z,5.99
2023-04-26T00:06:55.821Z,5.99
2023-04-26T00:08:00.036Z,5.99
2023-04-26T00:09:04.262Z,6.00
2023-04-26T00:10:08.630Z,6.00
2023-04-26T00:11:12.765Z,6.00
2023-04-26T00:12:16.994Z,6.01
2023-04-26T00:13:21.170Z,6.02
2023-04-26T00:14:25.397Z,6.02
2023-04-26T00:15:29.642Z,6.02
2023-04-26T00:16:33.858Z,6.00
2023-04-26T00:17:38.096Z,5.97
2023-04-26T00:18:42.387Z,5.95
2023-04-26T00:19:46.488Z,5.93
2023-04-26T00:21:04.845Z,5.93
2023-04-26T00:22:08.190Z,5.93
2023-04-26T00:23:12.391Z,5.94
2023-04-26T00:24:16.629Z,5.94
2023-04-26T00:25:20.866Z,5.93
2023-04-26T00:26:25.061Z,5.92
2023-04-26T00:27:29.371Z,5.92
2023-04-26T00:28:33.583Z,5.91
2023-04-26T00:29:37.786Z,5.89
2023-04-26T00:30:42.055Z,5.87
2023-04-26T00:32:00.311Z,5.85
2023-04-26T00:33:03.495Z,5.83
2023-04-26T00:34:07.580Z,5.82
2023-04-26T00:35:11.840Z,5.81
2023-04-26T00:36:16.020Z,5.81
2023-04-26T00:37:20.301Z,5.81
2023-04-26T00:38:30.601Z,5.81
2023-04-26T00:39:33.392Z,5.83
2023-04-26T00:40:37.676Z,5.84
2023-04-26T00:41:41.808Z,5.85
2023-04-26T00:42:46.128Z,5.87
2023-04-26T00:43:50.387Z,5.88
2023-04-26T00:44:54.588Z,5.89
2023-04-26T00:45:58.847Z,5.89
2023-04-26T00:47:03.124Z,5.88
2023-04-26T00:48:07.254Z,5.88
2023-04-26T00:49:11.463Z,5.87
2023-04-26T00:50:15.656Z,5.87
2023-04-26T00:51:19.909Z,5.88
2023-04-26T00:52:24.122Z,5.89
2023-04-26T00:53:28.378Z,5.89
2023-04-26T00:54:32.646Z,5.89
2023-04-26T00:55:36.909Z,5.90
2023-04-26T00:56:41.016Z,5.90
2023-04-26T00:57:45.218Z,5.91
2023-04-26T00:58:49.745Z,5.92
2023-04-26T00:59:53.710Z,5.92
2023-04-26T01:00:57.947Z,5.92
2023-04-26T01:02:08.266Z,5.92
2023-04-26T01:03:11.145Z,5.91
2023-04-26T01:04:15.502Z,5.91
2023-04-26T01:05:19.476Z,5.90
2023-04-26T01:06:23.666Z,5.90
2023-04-26T01:07:27.896Z,5.91
2023-04-26T01:08:32.142Z,5.92
2023-04-26T01:09:36.403Z,5.93
2023-04-26T01:10:40.583Z,5.93
2023-04-26T01:11:44.974Z,5.93
2023-04-26T01:12:49.213Z,5.92
2023-04-26T01:13:53.380Z,5.89
2023-04-26T01:14:57.669Z,5.86
2023-04-26T01:16:01.837Z,5.85
2023-04-26T01:17:06.120Z,5.82
2023-04-26T01:18:10.346Z,5.78
2023-04-26T01:19:14.516Z,5.76
2023-04-26T01:20:18.760Z,5.73
2023-04-26T01:21:22.974Z,5.71
2023-04-26T01:22:27.157Z,5.68
2023-04-26T01:23:31.344Z,5.68
2023-04-26T01:24:35.557Z,5.69
2023-04-26T01:25:39.854Z,5.69
2023-04-26T01:26:44.053Z,5.69
2023-04-26T01:27:48.305Z,5.69
2023-04-26T01:28:52.958Z,5.69
2023-04-26T01:29:56.778Z,5.68
2023-04-26T01:31:01.044Z,5.65
2023-04-26T01:32:05.288Z,5.64
2023-04-26T01:33:09.531Z,5.64
2023-04-26T01:34:13.754Z,5.63
2023-04-26T01:35:17.953Z,5.62
2023-04-26T01:36:22.283Z,5.62
2023-04-26T01:37:26.525Z,5.61
2023-04-26T01:38:30.779Z,5.62
2023-04-26T01:39:35.024Z,5.64
2023-04-26T01:40:39.211Z,5.65
2023-04-26T01:41:43.551Z,5.66
2023-04-26T01:42:47.803Z,5.67
2023-04-26T01:43:52.031Z,5.66
2023-04-26T01:44:56.239Z,5.64
2023-04-26T01:46:00.565Z,5.63
2023-04-26T01:47:04.700Z,5.61
2023-04-26T01:48:09.044Z,5.60
2023-04-26T01:49:13.195Z,5.59
2023-04-26T01:50:17.388Z,5.60
2023-04-26T01:51:21.655Z,5.60
2023-04-26T01:52:25.964Z,5.60
2023-04-26T01:53:30.219Z,5.60
2023-04-26T01:54:34.448Z,5.61
2023-04-26T01:55:38.560Z,5.61
2023-04-26T01:56:42.837Z,5.59
2023-04-26T01:57:47.130Z,5.57
2023-04-26T01:58:51.675Z,5.55
2023-04-26T01:59:55.524Z,5.55
2023-04-26T02:00:59.763Z,5.56
2023-04-26T02:02:04.072Z,5.55
2023-04-26T02:03:08.316Z,5.54
2023-04-26T02:04:12.455Z,5.54
2023-04-26T02:05:16.769Z,5.53
2023-04-26T02:06:20.933Z,5.53
2023-04-26T02:07:31.230Z,5.55
2023-04-26T02:08:33.984Z,5.55
2023-04-26T02:09:38.374Z,5.55
2023-04-26T02:10:42.556Z,5.55
2023-04-26T02:11:46.761Z,5.53
2023-04-26T02:13:05.111Z,5.52
2023-04-26T02:14:22.296Z,5.51
2023-04-26T02:15:25.246Z,5.47
2023-04-26T02:16:29.581Z,5.47
2023-04-26T02:17:33.648Z,5.47
2023-04-26T02:18:37.753Z,5.47
2023-04-26T02:19:41.964Z,5.46
2023-04-26T02:20:46.204Z,5.46
2023-04-26T02:21:50.424Z,5.45
2023-04-26T02:22:54.641Z,5.43
2023-04-26T02:23:58.898Z,5.40
2023-04-26T02:25:03.137Z,5.36
2023-04-26T02:26:07.294Z,5.33
2023-04-26T02:27:11.581Z,5.32
2023-04-26T02:28:15.749Z,5.32
2023-04-26T02:29:24.633Z,5.32
2023-04-26T02:30:24.212Z,5.33
2023-04-26T02:31:28.481Z,5.34
2023-04-26T02:32:32.681Z,5.35
2023-04-26T02:33:36.894Z,5.36
2023-04-26T02:34:41.137Z,5.37
2023-04-26T02:35:45.363Z,5.37
2023-04-26T02:36:49.608Z,5.38
2023-04-26T02:37:53.901Z,5.37
2023-04-26T02:38:58.138Z,5.37
2023-04-26T02:40:02.425Z,5.37
2023-04-26T02:41:06.696Z,5.37
2023-04-26T02:42:10.963Z,5.37
2023-04-26T02:43:15.124Z,5.37
2023-04-26T02:44:19.314Z,5.36
2023-04-26T02:45:23.541Z,5.36
2023-04-26T02:46:27.950Z,5.35
2023-04-26T02:47:32.079Z,5.34
2023-04-26T02:48:36.322Z,5.32
2023-04-26T02:49:40.593Z,5.31
2023-04-26T02:50:44.748Z,5.31
2023-04-26T02:51:49.037Z,5.30
2023-04-26T02:52:53.267Z,5.29
2023-04-26T02:53:57.579Z,5.29
2023-04-26T02:55:01.837Z,5.28
2023-04-26T02:56:05.971Z,5.27
2023-04-26T02:57:10.140Z,5.27
2023-04-26T02:58:14.442Z,5.26
2023-04-26T02:59:18.702Z,5.25
2023-04-26T03:00:22.854Z,5.24
2023-04-26T03:01:27.111Z,5.24
2023-04-26T03:02:31.430Z,5.23
2023-04-26T03:03:35.642Z,5.22
2023-04-26T03:04:39.673Z,5.23
2023-04-26T03:05:44.824Z,5.24
2023-04-26T03:06:48.758Z,5.23
2023-04-26T03:07:52.922Z,5.22
2023-04-26T03:08:57.131Z,5.22
2023-04-26T03:10:01.403Z,5.23
2023-04-26T03:11:05.694Z,5.25
2023-04-26T03:13:36.922Z,5.25
2023-04-26T03:14:41.175Z,5.23
2023-04-26T03:15:45.414Z,5.22
2023-04-26T03:17:03.694Z,5.21
2023-04-26T03:18:06.599Z,5.22
2023-04-26T03:19:10.666Z,5.21
2023-04-26T03:20:15.007Z,5.19
2023-04-26T03:21:19.266Z,5.18
2023-04-26T03:22:23.416Z,5.16
2023-04-26T03:23:27.624Z,5.15
2023-04-26T03:24:31.957Z,5.13
2023-04-26T03:25:36.123Z,5.12
2023-04-26T03:26:40.492Z,5.13
2023-04-26T03:27:44.618Z,5.13
2023-04-26T03:28:48.913Z,5.12
2023-04-26T03:29:54.143Z,5.12
2023-04-26T03:30:58.023Z,5.11
2023-04-26T03:32:02.350Z,5.10
2023-04-26T03:33:06.500Z,5.09
2023-04-26T03:34:10.731Z,5.08
2023-04-26T03:35:15.066Z,5.06
2023-04-26T03:36:19.318Z,5.05
2023-04-26T03:37:23.451Z,5.05
2023-04-26T03:38:27.644Z,5.03
2023-04-26T03:39:31.873Z,5.02
2023-04-26T03:40:36.097Z,5.01
2023-04-26T03:41:40.408Z,5.00
2023-04-26T03:42:44.584Z,4.98
2023-04-26T03:43:48.719Z,4.97
2023-04-26T03:44:53.184Z,4.96
2023-04-26T03:45:57.349Z,4.95
2023-04-26T03:47:01.653Z,4.93
2023-04-26T03:48:05.937Z,4.92
2023-04-26T03:49:10.153Z,4.92
2023-04-26T03:50:14.383Z,4.92
2023-04-26T03:51:18.530Z,4.93
2023-04-26T03:52:22.721Z,4.93
2023-04-26T03:53:27.020Z,4.92
2023-04-26T03:54:31.177Z,4.92
2023-04-26T03:55:35.383Z,4.94
2023-04-26T03:56:39.592Z,4.95
2023-04-26T03:57:43.915Z,4.97
2023-04-26T03:58:48.091Z,4.97
2023-04-26T03:59:52.286Z,4.97
2023-04-26T04:00:56.619Z,4.98
2023-04-26T04:02:00.834Z,4.99
2023-04-26T04:03:05.241Z,4.98
2023-04-26T04:04:09.587Z,4.97
2023-04-26T04:05:13.813Z,4.97
2023-04-26T04:06:17.765Z,4.98
2023-04-26T04:07:22.064Z,4.99
2023-04-26T04:08:42.280Z,5.00
2023-04-26T04:09:45.306Z,5.01
2023-04-26T04:11:05.614Z,5.02
2023-04-26T04:12:08.188Z,5.04
2023-04-26T04:13:12.246Z,5.07
2023-04-26T04:14:16.536Z,5.10
2023-04-26T04:15:20.654Z,5.11
2023-04-26T04:16:24.900Z,5.12
2023-04-26T04:17:29.057Z,5.13
2023-04-26T04:18:39.213Z,5.13
2023-04-26T04:19:42.014Z,5.13
2023-04-26T04:20:46.179Z,5.14
2023-04-26T04:21:50.409Z,5.15
2023-04-26T04:22:54.698Z,5.16
2023-04-26T04:23:58.894Z,5.18
2023-04-26T04:25:03.238Z,5.20
2023-04-26T04:26:07.366Z,5.21
2023-04-26T04:27:11.628Z,5.21
2023-04-26T04:28:15.780Z,5.22
2023-04-26T04:29:20.036Z,5.22
2023-04-26T04:30:24.343Z,5.22
2023-04-26T04:31:28.504Z,5.23
2023-04-26T04:32:32.582Z,5.23
2023-04-26T04:33:36.858Z,5.24
2023-04-26T04:34:41.068Z,5.25
2023-04-26T04:35:45.286Z,5.26
2023-04-26T04:36:52.499Z,5.28
2023-04-26T04:37:55.861Z,5.30
2023-04-26T04:39:00.044Z,5.30
2023-04-26T04:40:04.351Z,5.31
2023-04-26T04:41:08.629Z,5.31
2023-04-26T04:42:26.831Z,5.32
2023-04-26T04:43:29.865Z,5.33
2023-04-26T04:44:34.007Z,5.36
2023-04-26T04:45:38.353Z,5.38
2023-04-26T04:46:42.507Z,5.41
2023-04-26T04:47:46.782Z,5.43
2023-04-26T04:48:51.186Z,5.45
2023-04-26T04:49:55.136Z,5.46
2023-04-26T04:50:59.399Z,5.47
2023-04-26T04:52:03.593Z,5.49
2023-04-26T04:53:07.944Z,5.50
2023-04-26T04:54:11.979Z,5.51
2023-04-26T04:55:16.228Z,5.52
2023-04-26T04:56:20.499Z,5.53
2023-04-26T04:57:24.654Z,5.54
2023-04-26T04:58:28.940Z,5.54
2023-04-26T04:59:33.194Z,5.54
2023-04-26T05:00:37.399Z,5.57
2023-04-26T05:01:41.565Z,5.59
2023-04-26T05:02:45.907Z,5.62
2023-04-26T05:03:50.273Z,5.63
2023-04-26T05:04:54.454Z,5.65
2023-04-26T05:05:58.620Z,5.66
2023-04-26T05:07:02.798Z,5.67
2023-04-26T05:08:07.004Z,5.68
2023-04-26T05:09:11.304Z,5.72
2023-04-26T05:10:15.472Z,5.75
2023-04-26T05:11:19.683Z,5.78
2023-04-26T05:12:23.961Z,5.81
2023-04-26T05:13:28.096Z,5.84
2023-04-26T05:14:32.334Z,5.87
2023-04-26T05:15:36.565Z,5.91
2023-04-26T05:16:40.870Z,5.95
2023-04-26T05:17:45.124Z,5.97
2023-04-26T05:18:49.235Z,6.00
2023-04-26T05:19:53.489Z,6.02
2023-04-26T05:20:57.691Z,6.06
2023-04-26T05:22:01.990Z,6.10
2023-04-26T05:23:06.135Z,6.13
2023-04-26T05:24:10.435Z,6.17
2023-04-26T05:25:14.638Z,6.20
2023-04-26T05:26:18.842Z,6.21
2023-04-26T05:27:23.154Z,6.21
2023-04-26T05:28:27.422Z,6.24
2023-04-26T05:29:31.606Z,6.27
2023-04-26T05:30:35.829Z,6.31
2023-04-26T05:31:40.168Z,6.34
2023-04-26T05:32:44.353Z,6.35
2023-04-26T05:33:48.546Z,6.37
2023-04-26T05:34:52.765Z,6.39
2023-04-26T05:35:56.948Z,6.41
2023-04-26T05:37:01.175Z,6.44
2023-04-26T05:38:05.510Z,6.46
2023-04-26T05:39:09.673Z,6.48
2023-04-26T05:40:13.965Z,6.51
2023-04-26T05:41:18.128Z,6.54
2023-04-26T05:42:22.512Z,6.59
2023-04-26T05:43:26.621Z,6.63
2023-04-26T05:44:30.785Z,6.67
2023-04-26T05:45:35.086Z,6.70
2023-04-26T05:46:39.265Z,6.72
2023-04-26T05:47:43.551Z,6.77
2023-04-26T05:48:47.791Z,6.82
2023-04-26T05:49:51.959Z,6.86
2023-04-26T05:50:56.213Z,6.92
2023-04-26T05:52:00.465Z,6.97
2023-04-26T05:53:04.646Z,7.02
2023-04-26T05:54:08.890Z,7.08
2023-04-26T05:55:13.079Z,7.18
2023-04-26T05:56:17.313Z,7.30
2023-04-26T05:57:21.679Z,7.47
2023-04-26T05:58:39.841Z,7.62
2023-04-26T05:59:42.872Z,7.80
2023-04-26T06:00:47.060Z,7.91
2023-04-26T06:01:51.506Z,8.00
2023-04-26T06:02:55.739Z,8.08
2023-04-26T06:04:01.192Z,8.13
2023-04-26T06:05:04.218Z,8.17
2023-04-26T06:06:08.301Z,8.22
2023-04-26T06:07:12.572Z,8.26
2023-04-26T06:08:16.772Z,8.28
2023-04-26T06:09:21.001Z,8.29
2023-04-26T06:10:25.416Z,8.30
2023-04-26T06:11:29.577Z,8.33
2023-04-26T06:12:33.783Z,8.36
2023-04-26T06:13:38.021Z,8.37
2023-04-26T06:14:42.288Z,8.35
2023-04-26T06:15:46.528Z,8.37
2023-04-26T06:16:50.879Z,8.40
2023-04-26T06:17:55.133Z,8.43
2023-04-26T06:18:59.313Z,8.47
2023-04-26T06:20:03.597Z,8.51
2023-04-26T06:21:07.783Z,8.52
2023-04-26T06:22:12.087Z,8.54
2023-04-26T06:23:16.387Z,8.58
2023-04-26T06:24:20.533Z,8.65
2023-04-26T06:25:24.792Z,8.77
2023-04-26T06:26:29.012Z,8.86
2023-04-26T06:27:33.248Z,8.94
2023-04-26T06:28:37.489Z,8.99
2023-04-26T06:29:41.746Z,9.03
2023-04-26T06:31:00.156Z,9.07
2023-04-26T06:32:03.300Z,9.12
2023-04-26T06:33:07.603Z,9.13
2023-04-26T06:34:11.833Z,9.12
2023-04-26T06:35:16.105Z,9.09
2023-04-26T06:36:20.353Z,9.07
2023-04-26T06:37:24.668Z,9.04
2023-04-26T06:38:28.867Z,9.02
2023-04-26T06:39:33.231Z,9.01
2023-04-26T06:40:37.388Z,9.00
2023-04-26T06:41:41.734Z,9.00
2023-04-26T06:42:46.028Z,9.00
2023-04-26T06:43:50.518Z,8.99
2023-04-26T06:44:54.552Z,8.96
2023-04-26T06:45:58.800Z,8.94
2023-04-26T06:47:02.980Z,8.92
2023-04-26T06:48:07.234Z,8.92
2023-04-26T06:49:11.408Z,8.93
2023-04-26T06:50:15.884Z,8.94
2023-04-26T06:51:20.010Z,8.96
2023-04-26T06:52:24.244Z,8.98
2023-04-26T06:53:28.503Z,9.01
2023-04-26T06:55:37.050Z,9.11
2023-04-26T06:56:41.295Z,9.16
2023-04-26T06:57:45.936Z,9.20
2023-04-26T06:58:49.810Z,9.22
2023-04-26T06:59:54.108Z,9.24
2023-04-26T07:00:58.414Z,9.27
2023-04-26T07:02:02.609Z,9.29
2023-04-26T07:03:07.004Z,9.31
2023-04-26T07:04:11.590Z,9.33
2023-04-26T07:05:15.690Z,9.33
2023-04-26T07:06:22.930Z,9.33
2023-04-26T07:07:26.226Z,9.31
2023-04-26T07:08:30.202Z,9.33
2023-04-26T07:09:34.848Z,9.36
2023-04-26T07:10:39.040Z,9.38
2023-04-26T07:11:43.253Z,9.40
2023-04-26T07:12:47.497Z,9.46
2023-04-26T07:13:52.017Z,9.48
2023-04-26T07:14:56.052Z,9.50
2023-04-26T07:16:00.472Z,9.51
2023-04-26T07:17:07.511Z,9.53
2023-04-26T07:18:10.934Z,9.51
2023-04-26T07:19:18.129Z,9.51
2023-04-26T07:20:21.465Z,9.52
2023-04-26T07:21:25.708Z,9.54
2023-04-26T07:22:29.878Z,9.55
2023-04-26T07:23:34.132Z,9.55
2023-04-26T07:24:38.412Z,9.57
2023-04-26T07:25:45.831Z,9.58
2023-04-26T07:26:49.001Z,9.56
2023-04-26T07:27:53.220Z,9.58
2023-04-26T07:28:58.487Z,9.63
2023-04-26T07:30:02.351Z,9.68
2023-04-26T07:31:08.751Z,9.75
2023-04-26T07:32:10.851Z,9.84
2023-04-26T07:33:15.208Z,9.94
2023-04-26T07:34:19.347Z,10.03
2023-04-26T07:35:23.645Z,10.05
2023-04-26T07:36:27.866Z,10.07
2023-04-26T07:37:32.079Z,10.02
2023-04-26T07:38:36.329Z,9.98
2023-04-26T07:39:40.587Z,9.98
2023-04-26T07:40:44.908Z,10.03
2023-04-26T07:41:49.108Z,10.04
2023-04-26T07:42:54.241Z,9.99
2023-04-26T07:43:58.123Z,9.93
2023-04-26T07:45:02.348Z,9.84
2023-04-26T07:46:06.693Z,9.75
2023-04-26T07:47:10.922Z,9.69
2023-04-26T07:48:15.233Z,9.61
2023-04-26T07:49:19.360Z,9.53
2023-04-26T07:50:23.711Z,9.51
2023-04-26T07:51:28.789Z,9.53
2023-04-26T07:52:32.624Z,9.59
2023-04-26T07:53:36.920Z,9.63
2023-04-26T07:54:42.336Z,9.67
2023-04-26T07:55:47.351Z,9.71
2023-04-26T07:56:51.185Z,9.71
2023-04-26T07:57:55.356Z,9.64
2023-04-26T07:58:59.458Z,9.60
2023-04-26T08:00:03.811Z,9.61
2023-04-26T08:01:08.065Z,9.63
2023-04-26T08:02:41.050Z,9.66
2023-04-26T08:03:29.483Z,9.68
2023-04-26T08:04:33.693Z,9.68
2023-04-26T08:05:38.008Z,9.67
2023-04-26T08:06:41.867Z,9.65
2023-04-26T08:07:49.256Z,9.63
2023-04-26T08:08:52.875Z,9.59
2023-04-26T08:09:56.914Z,9.58
2023-04-26T08:11:01.040Z,9.57
2023-04-26T08:12:05.434Z,9.57
2023-04-26T08:13:09.606Z,9.58
2023-04-26T08:14:13.921Z,9.62
2023-04-26T08:15:18.099Z,9.68
2023-04-26T08:16:22.396Z,9.72
2023-04-26T08:17:29.661Z,9.77
2023-04-26T08:18:33.102Z,9.80
2023-04-26T08:19:37.253Z,9.82
2023-04-26T08:20:41.479Z,9.82
2023-04-26T08:21:45.788Z,9.79
2023-04-26T08:22:50.079Z,9.74
2023-04-26T08:23:54.574Z,9.69
2023-04-26T08:24:58.545Z,9.62
2023-04-26T08:26:02.821Z,9.54
2023-04-26T08:27:07.129Z,9.49
2023-04-26T08:28:11.332Z,9.45
2023-04-26T08:29:15.562Z,9.42
2023-04-26T08:30:19.918Z,9.43
2023-04-26T08:31:24.296Z,9.49
2023-04-26T08:32:28.494Z,9.56
2023-04-26T08:33:32.663Z,9.65
2023-04-26T08:34:37.044Z,9.73
2023-04-26T08:35:41.320Z,9.77
2023-04-26T08:36:45.602Z,9.80
2023-04-26T08:37:49.886Z,9.80
2023-04-26T08:38:54.100Z,9.79
2023-04-26T08:39:58.379Z,9.82
2023-04-26T08:41:02.843Z,9.90
2023-04-26T08:42:06.919Z,9.99
2023-04-26T08:43:11.057Z,10.05
2023-04-26T08:44:15.371Z,10.06
2023-04-26T08:45:19.630Z,10.06
2023-04-26T08:46:23.988Z,10.06
2023-04-26T08:47:28.197Z,10.08
2023-04-26T08:48:32.350Z,10.09
2023-04-26T08:49:36.755Z,10.05
2023-04-26T08:50:40.982Z,10.02
2023-04-26T08:51:48.292Z,10.03
2023-04-26T08:52:51.656Z,10.07
2023-04-26T08:53:55.963Z,10.14
2023-04-26T08:55:00.190Z,10.22
2023-04-26T08:56:04.458Z,10.27
2023-04-26T08:57:08.965Z,10.31
2023-04-26T08:58:13.026Z,10.32
2023-04-26T08:59:17.264Z,10.35
2023-04-26T09:00:21.560Z,10.41
2023-04-26T09:01:25.789Z,10.48
2023-04-26T09:02:36.137Z,10.55
2023-04-26T09:03:39.191Z,10.62
2023-04-26T09:04:43.284Z,10.68
2023-04-26T09:05:47.378Z,10.70
2023-04-26T09:06:51.652Z,10.72
2023-04-26T09:07:55.887Z,10.73
2023-04-26T09:09:00.247Z,10.73
2023-04-26T09:10:04.476Z,10.71
2023-04-26T09:11:08.729Z,10.68
2023-04-26T09:12:13.045Z,10.65
2023-04-26T09:13:17.368Z,10.71
2023-04-26T09:14:21.661Z,10.94
2023-04-26T09:15:26.839Z,11.26
2023-04-26T09:16:30.768Z,11.50
2023-04-26T09:17:35.078Z,11.63
2023-04-26T09:18:39.373Z,11.62
2023-04-26T09:19:43.620Z,11.54
2023-04-26T09:20:47.895Z,11.48
2023-04-26T09:21:52.256Z,11.47
2023-04-26T09:22:56.523Z,11.39
2023-04-26T09:24:00.780Z,11.27
2023-04-26T09:25:05.130Z,11.17
2023-04-26T09:26:09.357Z,11.13
2023-04-26T09:27:13.634Z,11.16
2023-04-26T09:28:17.951Z,11.23
2023-04-26T09:29:22.233Z,11.29
2023-04-26T09:30:26.563Z,11.31
2023-04-26T09:31:30.882Z,11.35
2023-04-26T09:32:35.123Z,11.44
2023-04-26T09:33:39.447Z,11.57
2023-04-26T09:34:43.796Z,11.61
2023-04-26T09:35:48.127Z,11.62
2023-04-26T09:36:52.454Z,11.65
2023-04-26T09:38:00.320Z,11.75
2023-04-26T09:39:00.971Z,11.86
2023-04-26T09:40:05.381Z,11.93
2023-04-26T09:41:09.615Z,11.97
2023-04-26T09:42:13.948Z,11.96
2023-04-26T09:43:18.260Z,11.92
2023-04-26T09:44:22.521Z,11.90
2023-04-26T09:45:26.858Z,11.78
2023-04-26T09:46:31.056Z,11.66
2023-04-26T09:47:35.402Z,11.60
2023-04-26T09:48:39.687Z,11.59
2023-04-26T09:49:44.023Z,11.57
2023-04-26T09:50:48.239Z,11.53
2023-04-26T09:51:52.558Z,11.47
2023-04-26T09:52:56.828Z,11.38
2023-04-26T09:54:01.092Z,11.26
2023-04-26T09:55:05.441Z,11.16
2023-04-26T09:56:09.743Z,11.13
2023-04-26T09:57:13.972Z,11.14
2023-04-26T09:58:19.358Z,11.20
2023-04-26T09:59:23.133Z,11.29
2023-04-26T10:00:27.519Z,11.37
2023-04-26T10:01:31.725Z,11.45
2023-04-26T10:02:35.937Z,11.55
2023-04-26T10:03:40.428Z,11.61
2023-04-26T10:04:44.492Z,11.65
2023-04-26T10:05:48.868Z,11.66
2023-04-26T10:07:07.186Z,11.64
2023-04-26T10:08:10.398Z,11.53
2023-04-26T10:09:14.610Z,11.42
2023-04-26T10:10:18.947Z,11.29
2023-04-26T10:11:23.158Z,11.16
2023-04-26T10:12:27.427Z,11.08
2023-04-26T10:13:31.789Z,11.06
2023-04-26T10:14:36.026Z,11.07
2023-04-26T10:15:40.400Z,11.13
2023-04-26T10:16:44.639Z,11.20
2023-04-26T10:17:51.966Z,11.22
2023-04-26T10:18:53.249Z,11.22
2023-04-26T10:19:57.442Z,11.20
2023-04-26T10:21:01.680Z,11.15
2023-04-26T10:22:05.955Z,11.08
2023-04-26T10:23:10.266Z,11.00
2023-04-26T10:24:14.580Z,10.92
2023-04-26T10:25:18.809Z,10.86
2023-04-26T10:26:23.060Z,10.79
2023-04-26T10:27:27.434Z,10.77
2023-04-26T10:28:31.746Z,10.80
2023-04-26T10:29:35.952Z,10.87
2023-04-26T10:30:40.369Z,10.97
2023-04-26T10:31:44.673Z,11.08
2023-04-26T10:32:48.927Z,11.22
2023-04-26T10:33:53.197Z,11.34
2023-04-26T10:34:57.394Z,11.46
2023-04-26T10:36:01.630Z,11.56
2023-04-26T10:37:06.010Z,11.65
2023-04-26T10:38:10.463Z,11.75
2023-04-26T10:39:28.735Z,11.85
2023-04-26T10:40:31.734Z,11.93
2023-04-26T10:41:35.963Z,11.99
2023-04-26T10:42:41.570Z,12.04
2023-04-26T10:43:44.566Z,12.10
2023-04-26T10:44:48.932Z,12.16
2023-04-26T10:45:53.256Z,12.22
2023-04-26T10:46:57.421Z,12.23
2023-04-26T10:48:01.792Z,12.19
2023-04-26T10:49:05.962Z,12.15
2023-04-26T10:50:10.355Z,12.15
2023-04-26T10:51:14.511Z,12.16
2023-04-26T10:52:18.866Z,12.19
2023-04-26T10:53:23.114Z,12.23
2023-04-26T10:54:27.446Z,12.25
2023-04-26T10:55:31.643Z,12.21
2023-04-26T10:56:35.928Z,12.17
2023-04-26T10:57:40.198Z,12.14
2023-04-26T10:58:44.568Z,12.09
2023-04-26T10:59:54.591Z,12.02
2023-04-26T11:00:53.052Z,11.95
2023-04-26T11:01:57.321Z,11.86
2023-04-26T11:03:01.674Z,11.78
2023-04-26T11:04:05.936Z,11.70
2023-04-26T11:05:13.168Z,11.66
2023-04-26T11:06:16.533Z,11.61
2023-04-26T11:07:20.773Z,11.56
2023-04-26T11:08:25.068Z,11.51
2023-04-26T11:09:29.448Z,11.47
2023-04-26T11:10:35.154Z,11.44
2023-04-26T11:11:37.934Z,11.41
2023-04-26T11:12:42.330Z,11.39
2023-04-26T11:13:46.471Z,11.34
2023-04-26T11:15:04.743Z,11.31
2023-04-26T11:16:07.944Z,11.29
2023-04-26T11:17:12.084Z,11.29
2023-04-26T11:18:16.381Z,11.33
2023-04-26T11:19:20.585Z,11.40
2023-04-26T11:20:24.951Z,11.47
2023-04-26T11:21:29.280Z,11.52
2023-04-26T11:22:33.509Z,11.57
2023-04-26T11:23:37.779Z,11.65
2023-04-26T11:24:42.044Z,11.76
2023-04-26T11:25:46.307Z,11.89
2023-04-26T11:26:50.540Z,12.00
2023-04-26T11:27:54.953Z,12.10
2023-04-26T11:28:59.231Z,12.18
2023-04-26T11:30:03.534Z,12.22
2023-04-26T11:31:07.973Z,12.29
2023-04-26T11:32:12.140Z,12.41
2023-04-26T11:33:16.509Z,12.58
2023-04-26T11:34:20.896Z,12.74
2023-04-26T11:35:25.099Z,12.90
2023-04-26T11:36:29.463Z,13.05
2023-04-26T11:37:33.803Z,13.20
2023-04-26T11:38:38.143Z,13.24
2023-04-26T11:39:42.363Z,13.26
2023-04-26T11:40:46.690Z,13.33
2023-04-26T11:41:51.005Z,13.42
2023-04-26T11:42:55.299Z,13.51
2023-04-26T11:43:59.592Z,13.60
2023-04-26T11:45:03.883Z,13.73
2023-04-26T11:46:08.290Z,13.87
2023-04-26T11:47:12.648Z,13.99
2023-04-26T11:48:16.890Z,14.11
2023-04-26T11:49:21.167Z,14.23
2023-04-26T11:50:25.506Z,14.35
2023-04-26T11:51:30.649Z,14.48
2023-04-26T11:52:34.114Z,14.59
2023-04-26T11:53:38.577Z,14.66
2023-04-26T11:54:42.758Z,14.78
2023-04-26T11:55:47.061Z,14.88
2023-04-26T11:56:51.350Z,14.95
2023-04-26T11:57:55.713Z,14.95
2023-04-26T11:58:59.996Z,14.87
2023-04-26T12:00:04.296Z,14.72
2023-04-26T12:01:08.696Z,14.54
2023-04-26T12:02:13.137Z,14.36
2023-04-26T12:03:17.460Z,14.20
2023-04-26T12:04:21.602Z,14.03
2023-04-26T12:05:25.910Z,13.78
2023-04-26T12:06:30.123Z,13.58
2023-04-26T12:07:34.515Z,13.39
2023-04-26T12:08:38.800Z,13.25
2023-04-26T12:09:43.065Z,13.13
2023-04-26T12:10:47.298Z,13.05
2023-04-26T12:11:54.680Z,13.01
2023-04-26T12:12:58.147Z,12.97
2023-04-26T12:14:02.372Z,12.92
2023-04-26T12:16:33.973Z,12.77
2023-04-26T12:17:38.182Z,12.69
2023-04-26T12:18:42.540Z,12.64
2023-04-26T12:19:46.757Z,12.58
2023-04-26T12:20:51.067Z,12.50
2023-04-26T12:21:55.379Z,12.43
2023-04-26T12:22:59.685Z,12.37
2023-04-26T12:24:03.919Z,12.34
2023-04-26T12:25:08.255Z,12.43
2023-04-26T12:26:12.512Z,12.64
2023-04-26T12:27:16.779Z,12.90
2023-04-26T12:28:21.228Z,13.18
2023-04-26T12:29:25.452Z,13.45
2023-04-26T12:30:29.835Z,13.69
2023-04-26T12:31:34.142Z,13.90
2023-04-26T12:32:38.401Z,14.01
2023-04-26T12:33:42.775Z,14.05
2023-04-26T12:34:47.044Z,14.07
2023-04-26T12:35:51.336Z,14.09
2023-04-26T12:36:55.725Z,14.17
2023-04-26T12:38:00.149Z,14.35
2023-04-26T12:39:04.389Z,14.44
2023-04-26T12:40:08.646Z,14.45
2023-04-26T12:41:12.953Z,14.41
2023-04-26T12:42:17.269Z,14.30
2023-04-26T12:43:21.573Z,14.23
2023-04-26T12:44:25.878Z,14.28
2023-04-26T12:45:30.171Z,14.41
2023-04-26T12:46:34.586Z,14.59
2023-04-26T12:47:38.917Z,14.78
2023-04-26T12:48:43.169Z,14.86
2023-04-26T12:49:47.455Z,14.84
2023-04-26T12:50:51.858Z,14.74
2023-04-26T12:51:56.107Z,14.66
2023-04-26T12:53:00.582Z,14.70
2023-04-26T12:54:04.829Z,14.77
2023-04-26T12:55:09.072Z,14.86
2023-04-26T12:56:13.408Z,14.95
2023-04-26T12:57:17.710Z,14.99
2023-04-26T12:58:22.114Z,14.94
2023-04-26T12:59:26.515Z,14.89
2023-04-26T13:00:30.898Z,14.82
2023-04-26T13:01:35.185Z,14.66
2023-04-26T13:02:39.529Z,14.50
2023-04-26T13:03:44.039Z,14.40
2023-04-26T13:04:48.256Z,14.31
2023-04-26T13:05:52.456Z,14.23
2023-04-26T13:06:56.732Z,14.11
2023-04-26T13:09:28.075Z,13.98
2023-04-26T13:10:32.258Z,13.92
2023-04-26T13:11:36.538Z,13.85
2023-04-26T13:12:40.921Z,13.77
2023-04-26T13:13:45.387Z,13.68
2023-04-26T13:14:49.484Z,13.61
2023-04-26T13:15:53.930Z,13.60
2023-04-26T13:16:58.147Z,13.64
2023-04-26T13:18:02.476Z,13.72
2023-04-26T13:19:06.743Z,13.75
2023-04-26T13:20:14.069Z,13.76
2023-04-26T13:21:17.437Z,13.72
2023-04-26T13:22:21.758Z,13.60
2023-04-26T13:23:40.064Z,13.48
2023-04-26T13:24:43.135Z,13.39
2023-04-26T13:25:47.276Z,13.33
2023-04-26T13:26:51.529Z,13.28
2023-04-26T13:27:55.783Z,13.25
2023-04-26T13:29:00.036Z,13.25
2023-04-26T13:30:04.360Z,13.28
2023-04-26T13:31:08.681Z,13.26
2023-04-26T13:32:12.928Z,13.25
2023-04-26T13:33:17.420Z,13.22
2023-04-26T13:34:21.542Z,13.22
2023-04-26T13:35:25.842Z,13.21
2023-04-26T13:36:30.141Z,13.21
2023-04-26T13:37:34.549Z,13.19
2023-04-26T13:38:38.902Z,13.09
2023-04-26T13:39:43.204Z,13.02
2023-04-26T13:40:47.478Z,12.97
2023-04-26T13:41:51.823Z,12.96
2023-04-26T13:42:56.036Z,12.93
2023-04-26T13:44:00.347Z,12.92
2023-04-26T13:45:04.601Z,12.92
2023-04-26T13:46:08.991Z,12.92
2023-04-26T13:47:13.340Z,12.95
2023-04-26T13:48:18.102Z,12.94
2023-04-26T13:49:21.908Z,12.94
2023-04-26T13:50:40.310Z,12.92
2023-04-26T13:51:43.709Z,12.87
2023-04-26T13:52:47.946Z,12.85
2023-04-26T13:53:52.300Z,12.82
2023-04-26T13:54:56.657Z,12.78
2023-04-26T13:56:00.931Z,12.73
2023-04-26T13:57:05.182Z,12.65
2023-04-26T13:58:09.596Z,12.60
2023-04-26T13:59:13.792Z,12.58
2023-04-26T14:00:18.168Z,12.62
2023-04-26T14:01:22.491Z,12.68
2023-04-26T14:02:26.910Z,12.74
2023-04-26T14:03:31.116Z,12.77
2023-04-26T14:04:35.530Z,12.79
2023-04-26T14:05:39.634Z,12.73
2023-04-26T14:06:44.054Z,12.69
2023-04-26T14:07:48.276Z,12.68
2023-04-26T14:08:52.566Z,12.67
2023-04-26T14:09:56.944Z,12.64
2023-04-26T14:11:01.194Z,12.58
2023-04-26T14:12:08.457Z,12.49
2023-04-26T14:13:09.723Z,12.39
2023-04-26T14:14:14.019Z,12.30